Time;durP1;ratioP1;P1;durP2;ratioP2;P2;SDS_P1;SDS_P2;PMS_P1;PMS_P2;Temp;Humidity;BMP_temperature;BMP_pressure;BME280_temperature;BME280_humidity;BME280_pressure;Samples;Min_cycle;Max_cycle;Signal;HPM_P1;HPM_P2
2021/10/14 00:02:22;;;;;;;5.13;4.57;;;;;;;5.43;100.00;152756.25;5052578;28;20489;-80
2021/10/14 00:04:58;;;;;;;5.80;4.80;;;;;;;5.41;100.00;152751.09;5068581;28;20470;-80
2021/10/14 00:07:34;;;;;;;5.57;4.07;;;;;;;5.40;100.00;152748.56;5039722;28;20453;-80
2021/10/14 00:10:09;;;;;;;5.50;4.17;;;;;;;5.37;100.00;152740.81;5069482;28;20840;-80
2021/10/14 00:12:47;;;;;;;4.57;3.33;;;;;;;5.38;100.00;152743.34;5071752;28;20433;-80
2021/10/14 00:15:23;;;;;;;6.73;3.90;;;;;;;5.39;100.00;152745.94;5035975;28;20537;-80
2021/10/14 00:17:59;;;;;;;3.93;3.50;;;;;;;5.37;100.00;152740.81;5051902;28;20469;-80
2021/10/14 00:20:35;;;;;;;4.20;3.57;;;;;;;5.37;100.00;152740.81;5068597;28;20433;-79
2021/10/14 00:23:10;;;;;;;4.40;3.80;;;;;;;5.34;100.00;152733.06;5052081;28;21038;-80
2021/10/14 00:25:46;;;;;;;4.90;3.53;;;;;;;5.34;100.00;152733.06;5067298;28;20807;-80
2021/10/14 00:28:23;;;;;;;4.27;3.87;;;;;;;5.31;100.00;152725.31;5053734;28;20506;-80
2021/10/14 00:30:58;;;;;;;4.97;3.30;;;;;;;5.30;100.00;152722.72;5071772;28;20516;-80
2021/10/14 00:33:33;;;;;;;5.27;3.90;;;;;;;5.27;100.00;152716.28;5051913;28;20448;-80
2021/10/14 00:36:09;;;;;;;3.67;3.30;;;;;;;5.26;100.00;152713.75;5052703;28;20437;-80
2021/10/14 00:38:45;;;;;;;7.13;3.70;;;;;;;5.25;100.00;152711.13;5072507;28;20430;-80
2021/10/14 00:41:20;;;;;;;4.80;3.40;;;;;;;5.23;100.00;152704.69;5067619;28;20502;-80
2021/10/14 00:43:58;;;;;;;4.07;3.10;;;;;;;5.17;100.00;152690.50;5063862;28;20485;-80
2021/10/14 00:46:33;;;;;;;4.67;3.93;;;;;;;5.17;100.00;152689.22;5052650;28;20450;-80
2021/10/14 00:49:09;;;;;;;5.17;3.20;;;;;;;5.12;100.00;152676.31;5053141;28;20549;-80
2021/10/14 00:51:46;;;;;;;5.27;3.90;;;;;;;5.07;100.00;152663.44;5038357;28;20466;-80
2021/10/14 00:54:21;;;;;;;4.20;3.43;;;;;;;5.05;100.00;152658.31;5037473;28;21017;-80
2021/10/14 00:56:57;;;;;;;4.60;3.20;;;;;;;5.04;100.00;152655.69;5066464;28;20449;-80
2021/10/14 00:59:35;;;;;;;3.70;3.07;;;;;;;5.02;100.00;152651.84;5053629;28;20474;-80
2021/10/14 01:02:11;;;;;;;6.33;3.50;;;;;;;5.00;100.00;152645.41;5052728;28;20991;-80
2021/10/14 01:04:46;;;;;;;3.93;3.17;;;;;;;5.01;100.00;152649.25;5059918;28;20533;-80
2021/10/14 01:07:22;;;;;;;4.00;3.10;;;;;;;5.02;100.00;152650.56;5049320;28;20454;-80
2021/10/14 01:09:58;;;;;;;6.30;3.40;;;;;;;5.03;100.00;152653.16;5071533;28;20840;-80
2021/10/14 01:12:34;;;;;;;4.00;3.60;;;;;;;5.02;100.00;152650.56;5053191;28;20445;-80
2021/10/14 01:15:19;;;;;;;5.20;3.90;;;;;;;5.00;100.00;152645.41;5069579;28;20441;-80
2021/10/14 01:17:55;;;;;;;5.00;4.20;;;;;;;4.97;100.00;152637.69;5052640;28;20541;-80
2021/10/14 01:20:32;;;;;;;4.63;3.93;;;;;;;4.92;100.00;152627.34;5059356;28;20532;-80
2021/10/14 01:23:07;;;;;;;5.53;3.97;;;;;;;4.88;100.00;152615.75;5040762;28;20488;-80
2021/10/14 01:25:46;;;;;;;5.00;4.30;;;;;;;4.90;100.00;152622.19;5073002;28;20437;-80
2021/10/14 01:28:21;;;;;;;4.13;3.50;;;;;;;4.89;100.00;152619.66;5057909;28;20446;-80
2021/10/14 01:30:58;;;;;;;4.00;3.60;;;;;;;4.86;100.00;152611.91;5037672;28;20476;-80
2021/10/14 01:33:34;;;;;;;3.37;3.00;;;;;;;4.87;100.00;152614.47;5057490;28;20831;-80
2021/10/14 01:36:11;;;;;;;4.13;3.20;;;;;;;4.87;100.00;152614.47;5070093;28;20441;-79
2021/10/14 01:38:46;;;;;;;4.50;3.10;;;;;;;4.89;100.00;152619.66;5055852;28;20535;-80
2021/10/14 01:41:22;;;;;;;2.83;2.43;;;;;;;4.89;100.00;152619.66;5055857;28;20453;-80
2021/10/14 01:43:57;;;;;;;3.13;2.77;;;;;;;4.93;100.00;152628.63;5075150;28;20477;-80
2021/10/14 01:46:32;;;;;;;4.07;2.67;;;;;;;4.96;100.00;152635.06;5054019;28;20454;-80
2021/10/14 01:49:08;;;;;;;4.00;2.50;;;;;;;4.96;100.00;152636.38;5062080;28;20453;-80
2021/10/14 01:51:45;;;;;;;2.97;2.60;;;;;;;4.97;100.00;152638.97;5073841;28;20928;-80
2021/10/14 01:54:22;;;;;;;4.93;3.47;;;;;;;4.95;100.00;152632.53;5046839;28;20454;-80
2021/10/14 01:56:57;;;;;;;3.97;2.80;;;;;;;4.92;100.00;152627.34;5036708;28;20451;-80
2021/10/14 01:59:33;;;;;;;5.50;4.60;;;;;;;4.93;100.00;152628.63;5054395;28;20806;-79
2021/10/14 02:02:08;;;;;;;6.47;4.07;;;;;;;4.93;100.00;152629.94;5056273;28;20481;-80
2021/10/14 02:04:44;;;;;;;5.47;4.50;;;;;;;4.93;100.00;152629.94;5074383;28;20450;-80
2021/10/14 02:07:20;;;;;;;4.80;4.30;;;;;;;4.91;100.00;152623.50;5043261;28;20448;-80
2021/10/14 02:09:56;;;;;;;5.63;4.50;;;;;;;4.86;100.00;152610.63;5054902;28;20450;-80
2021/10/14 02:12:32;;;;;;;5.57;5.00;;;;;;;4.83;100.00;152604.16;5054783;28;20445;-80
2021/10/14 02:15:08;;;;;;;5.20;4.57;;;;;;;4.77;100.00;152588.69;5056261;28;20476;-80
2021/10/14 02:17:44;;;;;;;5.60;4.60;;;;;;;4.75;100.00;152583.56;5073193;28;20461;-80
2021/10/14 02:20:20;;;;;;;6.10;4.40;;;;;;;4.71;100.00;152573.22;5055125;28;20453;-80
2021/10/14 02:22:57;;;;;;;6.37;4.40;;;;;;;4.65;100.00;152556.50;5072846;28;20790;-80
2021/10/14 02:25:32;;;;;;;6.30;5.10;;;;;;;4.65;100.00;152557.78;5055953;28;20848;-79
2021/10/14 02:28:08;;;;;;;5.50;4.67;;;;;;;4.62;100.00;152550.06;5042623;28;20458;-80
2021/10/14 02:30:44;;;;;;;6.17;5.10;;;;;;;4.56;100.00;152534.59;5071906;28;20437;-80
2021/10/14 02:33:19;;;;;;;5.30;4.80;;;;;;;4.54;100.00;152528.13;5053467;28;20449;-80
2021/10/14 02:35:54;;;;;;;7.10;4.90;;;;;;;4.56;100.00;152533.28;5073578;28;20442;-80
2021/10/14 02:38:31;;;;;;;5.47;4.43;;;;;;;4.54;100.00;152529.44;5040041;28;20453;-80
2021/10/14 02:41:07;;;;;;;5.63;4.73;;;;;;;4.53;100.00;152526.84;5053595;28;20513;-80
2021/10/14 02:43:42;;;;;;;5.40;4.80;;;;;;;4.51;100.00;152521.69;5055863;28;20496;-80
2021/10/14 02:46:18;;;;;;;5.50;4.70;;;;;;;4.47;100.00;152510.13;5054719;28;20888;-80
2021/10/14 02:48:53;;;;;;;5.63;5.00;;;;;;;4.47;100.00;152511.41;5056184;28;20453;-80
2021/10/14 02:51:29;;;;;;;6.93;4.80;;;;;;;4.48;100.00;152513.97;5055274;28;20452;-80
2021/10/14 02:54:06;;;;;;;6.57;5.20;;;;;;;4.49;100.00;152516.56;5050909;28;20437;-80
2021/10/14 02:56:41;;;;;;;5.80;5.20;;;;;;;4.46;100.00;152508.81;5073266;28;20513;-80
2021/10/14 02:59:17;;;;;;;5.00;4.50;;;;;;;4.43;100.00;152501.09;5073248;28;20469;-80
2021/10/14 03:01:52;;;;;;;6.37;5.37;;;;;;;4.44;100.00;152503.69;5064364;28;20511;-79
2021/10/14 03:04:28;;;;;;;5.90;5.30;;;;;;;4.40;100.00;152493.34;5068172;28;20952;-80
2021/10/14 03:07:03;;;;;;;7.03;5.20;;;;;;;4.37;100.00;152485.63;5052751;28;20449;-80
2021/10/14 03:09:40;;;;;;;8.23;4.90;;;;;;;4.36;100.00;152481.78;5037649;28;20443;-80
2021/10/14 03:12:15;;;;;;;6.87;4.73;;;;;;;4.34;100.00;152476.63;5046949;28;20879;-79
2021/10/14 03:14:51;;;;;;;6.67;6.07;;;;;;;4.30;100.00;152467.59;5071677;28;20444;-79
2021/10/14 03:17:26;;;;;;;6.93;4.83;;;;;;;4.30;100.00;152467.59;5056322;28;20485;-80
2021/10/14 03:20:02;;;;;;;5.43;4.83;;;;;;;4.31;100.00;152470.19;5044916;28;20796;-80
2021/10/14 03:22:37;;;;;;;7.10;5.17;;;;;;;4.32;100.00;152472.75;5072318;28;20449;-80
2021/10/14 03:25:14;;;;;;;6.57;5.37;;;;;;;4.32;100.00;152474.03;5054473;28;20851;-80
2021/10/14 03:27:50;;;;;;;6.50;5.80;;;;;;;4.36;100.00;152483.06;5022018;28;20449;-80
2021/10/14 03:30:25;;;;;;;5.50;4.93;;;;;;;4.38;100.00;152488.22;5037326;28;20453;-80
2021/10/14 03:33:00;;;;;;;6.43;4.80;;;;;;;4.40;100.00;152492.06;5053994;28;20460;-79
2021/10/14 03:35:36;;;;;;;6.90;5.70;;;;;;;4.39;100.00;152490.81;5072363;28;20460;-80
2021/10/14 03:38:12;;;;;;;8.40;6.13;;;;;;;4.39;100.00;152489.50;5052095;28;20454;-79
2021/10/14 03:40:49;;;;;;;6.53;5.47;;;;;;;4.41;100.00;152495.94;5050852;28;20452;-80
2021/10/14 03:43:24;;;;;;;7.53;5.60;;;;;;;4.39;100.00;152490.81;5053283;28;20477;-78
2021/10/14 03:46:00;;;;;;;7.17;5.53;;;;;;;4.35;100.00;152479.19;5040193;28;20453;-80
2021/10/14 03:48:36;;;;;;;5.83;4.80;;;;;;;4.33;100.00;152475.34;5036464;28;20881;-80
2021/10/14 03:51:11;;;;;;;5.93;5.37;;;;;;;4.34;100.00;152477.94;5053613;28;20446;-79
2021/10/14 03:53:47;;;;;;;5.87;5.27;;;;;;;4.36;100.00;152481.78;5072963;28;20434;-80
2021/10/14 03:56:24;;;;;;;5.93;5.37;;;;;;;4.28;100.00;152462.47;5034273;28;20445;-80
2021/10/14 03:58:59;;;;;;;6.07;5.47;;;;;;;4.29;100.00;152465.00;5057695;28;20477;-80
2021/10/14 04:01:35;;;;;;;5.40;4.50;;;;;;;4.27;100.00;152459.88;5049338;28;20506;-79
2021/10/14 04:04:10;;;;;;;6.07;4.70;;;;;;;4.25;100.00;152454.72;5072614;28;20465;-80
2021/10/14 04:06:46;;;;;;;6.37;4.93;;;;;;;4.20;100.00;152441.84;5072217;28;20442;-79
2021/10/14 04:09:21;;;;;;;5.83;4.20;;;;;;;4.23;100.00;152450.88;5053130;28;20898;-79
2021/10/14 04:11:58;;;;;;;5.73;3.87;;;;;;;4.27;100.00;152459.88;5047046;28;20440;-79
2021/10/14 04:14:34;;;;;;;5.00;4.20;;;;;;;4.25;100.00;152454.72;5071804;28;20927;-79
2021/10/14 04:17:09;;;;;;;5.27;4.43;;;;;;;4.27;100.00;152459.88;5070438;28;20481;-79
2021/10/14 04:19:45;;;;;;;5.40;4.07;;;;;;;4.23;100.00;152449.59;5056599;28;20482;-80
2021/10/14 04:22:20;;;;;;;6.03;4.20;;;;;;;4.22;100.00;152447.00;5033933;28;20811;-79
2021/10/14 04:24:56;;;;;;;4.93;4.30;;;;;;;4.23;100.00;152449.59;5049953;28;20544;-80
2021/10/14 04:27:33;;;;;;;4.77;4.27;;;;;;;4.27;100.00;152459.88;5050410;28;20932;-80
2021/10/14 04:30:09;;;;;;;4.70;4.07;;;;;;;4.28;100.00;152463.75;5072121;28;20468;-80
2021/10/14 04:32:45;;;;;;;5.93;4.30;;;;;;;4.32;100.00;152472.75;5053870;28;20442;-79
2021/10/14 04:35:22;;;;;;;3.70;3.30;;;;;;;4.37;100.00;152485.63;5053408;28;20872;-80
2021/10/14 04:37:57;;;;;;;5.77;3.80;;;;;;;4.41;100.00;152494.66;5039242;28;20947;-79
2021/10/14 04:40:33;;;;;;;4.83;3.97;;;;;;;4.43;100.00;152501.09;5034103;28;20430;-79
2021/10/14 04:43:10;;;;;;;6.23;4.83;;;;;;;4.44;100.00;152502.38;5059871;28;20476;-79
2021/10/14 04:45:45;;;;;;;5.33;3.80;;;;;;;4.45;100.00;152504.97;5045864;28;20437;-80
2021/10/14 04:48:21;;;;;;;4.50;3.90;;;;;;;4.47;100.00;152510.13;5050333;28;20445;-79
2021/10/14 04:50:56;;;;;;;4.50;3.90;;;;;;;4.48;100.00;152512.66;5048948;28;20446;-79
2021/10/14 04:53:32;;;;;;;5.83;4.07;;;;;;;4.50;100.00;152519.09;5059318;28;20449;-80
2021/10/14 04:56:07;;;;;;;5.27;3.60;;;;;;;4.50;100.00;152519.09;5053077;28;20519;-79
2021/10/14 04:58:44;;;;;;;4.60;3.70;;;;;;;4.53;100.00;152525.53;5058045;28;20478;-80
2021/10/14 05:01:19;;;;;;;4.73;4.20;;;;;;;4.54;100.00;152529.44;5056144;28;20469;-80
2021/10/14 05:03:55;;;;;;;5.80;3.57;;;;;;;4.54;100.00;152528.13;5073412;28;20468;-80
2021/10/14 05:06:30;;;;;;;6.30;4.20;;;;;;;4.53;100.00;152525.53;5071996;28;20835;-79
2021/10/14 05:09:06;;;;;;;13.43;4.80;;;;;;;4.57;100.00;152537.19;5047330;28;20450;-80
2021/10/14 05:11:41;;;;;;;5.07;4.00;;;;;;;4.59;100.00;152541.03;5075356;28;20422;-80
2021/10/14 05:14:18;;;;;;;4.33;3.40;;;;;;;4.60;100.00;152544.91;5074374;28;20490;-79
2021/10/14 05:16:54;;;;;;;5.10;3.40;;;;;;;4.63;100.00;152551.34;5031251;28;20442;-79
2021/10/14 05:19:29;;;;;;;4.07;3.67;;;;;;;4.66;100.00;152560.34;5057464;28;20450;-79
2021/10/14 05:22:05;;;;;;;5.63;4.27;;;;;;;4.68;100.00;152565.53;5037133;28;20450;-79
2021/10/14 05:24:41;;;;;;;6.60;4.17;;;;;;;4.72;100.00;152574.50;5062378;28;20851;-79
2021/10/14 05:27:16;;;;;;;4.53;4.10;;;;;;;4.72;100.00;152575.81;5054183;28;20850;-79
2021/10/14 05:29:53;;;;;;;5.53;4.40;;;;;;;4.73;100.00;152578.41;5054223;28;20865;-79
2021/10/14 05:32:29;;;;;;;5.60;4.17;;;;;;;4.74;100.00;152580.97;5056145;28;20462;-79
2021/10/14 05:35:05;;;;;;;5.37;4.10;;;;;;;4.75;100.00;152583.56;5050539;28;20536;-79
2021/10/14 05:37:40;;;;;;;5.93;4.03;;;;;;;4.78;100.00;152591.28;5055026;28;20456;-79
2021/10/14 05:40:16;;;;;;;6.30;3.83;;;;;;;4.80;100.00;152596.44;5056364;28;20458;-79
2021/10/14 05:42:52;;;;;;;5.13;3.97;;;;;;;4.80;100.00;152596.44;5037004;28;20454;-79
2021/10/14 05:45:40;;;;;;;5.10;3.83;;;;;;;4.81;100.00;152599.03;5061616;28;20457;-79
2021/10/14 05:48:15;;;;;;;5.93;4.10;;;;;;;4.81;100.00;152599.03;5051606;28;20553;-79
2021/10/14 05:50:51;;;;;;;6.17;4.00;;;;;;;4.82;100.00;152600.28;5072275;28;20452;-79
2021/10/14 05:53:26;;;;;;;8.63;3.97;;;;;;;4.82;100.00;152601.56;5050591;28;20490;-80
2021/10/14 05:56:01;;;;;;;4.90;4.27;;;;;;;4.81;100.00;152599.03;5043497;28;20445;-79
2021/10/14 05:58:37;;;;;;;5.30;3.80;;;;;;;4.85;100.00;152609.31;5054541;28;20852;-80
2021/10/14 06:01:14;;;;;;;6.47;4.13;;;;;;;4.83;100.00;152602.88;5051947;28;20454;-80
2021/10/14 06:03:49;;;;;;;5.50;3.93;;;;;;;4.86;100.00;152611.91;5048613;28;20477;-80
2021/10/14 06:06:25;;;;;;;5.50;4.10;;;;;;;4.86;100.00;152610.63;5034790;28;20462;-80
2021/10/14 06:09:00;;;;;;;6.50;4.30;;;;;;;4.86;100.00;152610.63;5052280;28;20452;-80
2021/10/14 06:11:36;;;;;;;4.40;3.87;;;;;;;4.84;100.00;152606.72;5053341;28;20803;-79
2021/10/14 06:14:12;;;;;;;5.60;4.60;;;;;;;4.88;100.00;152615.75;5061029;28;20521;-80
2021/10/14 06:16:48;;;;;;;4.40;4.00;;;;;;;4.90;100.00;152620.91;5049896;28;20442;-79
2021/10/14 06:19:24;;;;;;;4.90;3.83;;;;;;;4.90;100.00;152622.19;5052560;28;20473;-80
2021/10/14 06:22:00;;;;;;;6.23;4.30;;;;;;;4.96;100.00;152636.38;5057409;28;20862;-79
2021/10/14 06:24:35;;;;;;;6.70;4.80;;;;;;;5.02;100.00;152651.84;5073367;28;20445;-80
2021/10/14 06:27:11;;;;;;;5.77;4.37;;;;;;;5.10;100.00;152671.19;5046801;28;20803;-80
2021/10/14 06:29:46;;;;;;;6.27;4.50;;;;;;;5.15;100.00;152684.06;5073861;28;20418;-79
2021/10/14 06:32:23;;;;;;;4.50;3.70;;;;;;;5.20;100.00;152696.94;5046420;28;20486;-80
2021/10/14 06:34:59;;;;;;;6.37;3.90;;;;;;;5.23;100.00;152706.00;5051478;28;20429;-80
2021/10/14 06:37:34;;;;;;;6.50;4.30;;;;;;;5.29;100.00;152720.19;5055740;28;20449;-80
2021/10/14 06:40:12;;;;;;;6.70;4.40;;;;;;;5.37;100.00;152740.81;5045397;28;20450;-80
2021/10/14 06:42:48;;;;;;;4.80;4.30;;;;;;;5.44;100.00;152758.84;5053336;28;20442;-80
2021/10/14 06:45:23;;;;;;;7.40;4.40;;;;;;;5.53;100.00;152782.06;5045008;28;20501;-80
2021/10/14 06:48:00;;;;;;;5.63;4.33;;;;;;;5.58;100.00;152794.97;5051942;28;20450;-80
2021/10/14 06:50:35;;;;;;;5.30;4.47;;;;;;;5.61;100.00;152802.72;5050340;28;20446;-80
2021/10/14 06:53:11;;;;;;;4.43;4.00;;;;;;;5.59;100.00;152797.50;5044384;28;20832;-79
2021/10/14 06:55:47;;;;;;;8.40;4.50;;;;;;;5.57;100.00;152792.38;5052030;28;20522;-80
2021/10/14 06:58:22;;;;;;;5.87;4.77;;;;;;;5.59;100.00;152796.25;5052243;28;20581;-80
2021/10/14 07:00:58;;;;;;;5.20;3.70;;;;;;;5.61;100.00;152801.41;5054992;28;20422;-79
2021/10/14 07:03:34;;;;;;;4.87;3.87;;;;;;;5.68;100.00;152820.75;5051447;28;20552;-80
2021/10/14 07:06:10;;;;;;;4.77;3.57;;;;;;;5.71;100.00;152828.47;5053052;28;20491;-80
2021/10/14 07:08:45;;;;;;;4.57;3.87;;;;;;;5.78;100.00;152846.53;5054512;28;20457;-80
2021/10/14 07:11:22;;;;;;;4.63;4.00;;;;;;;5.80;100.00;152850.44;5073116;28;20441;-80
2021/10/14 07:13:58;;;;;;;4.63;3.83;;;;;;;5.87;100.00;152868.50;5055131;28;20443;-80
2021/10/14 07:16:33;;;;;;;5.70;3.83;;;;;;;6.00;100.00;152903.34;5055094;28;20438;-80
2021/10/14 07:19:10;;;;;;;5.90;3.90;;;;;;;6.07;100.00;152921.38;5072931;28;20534;-80
2021/10/14 07:21:46;;;;;;;7.00;4.30;;;;;;;6.07;100.00;152921.38;5050882;28;20443;-80
2021/10/14 07:24:21;;;;;;;5.80;4.73;;;;;;;6.12;100.00;152934.28;5035280;28;20941;-80
2021/10/14 07:26:57;;;;;;;8.33;4.60;;;;;;;6.14;100.00;152938.19;5052353;28;20477;-80
2021/10/14 07:29:33;;;;;;;7.70;4.63;;;;;;;6.20;100.00;152953.63;5064238;28;21306;-80
2021/10/14 07:32:08;;;;;;;5.83;4.50;;;;;;;6.27;100.00;152970.41;5072883;28;20854;-80
2021/10/14 07:34:45;;;;;;;6.93;4.40;;;;;;;6.32;100.00;152984.63;5054847;28;20434;-80
2021/10/14 07:37:21;;;;;;;11.20;4.50;;;;;;;6.39;100.00;153002.66;5046212;28;20463;-80
2021/10/14 07:39:56;;;;;;;5.37;4.43;;;;;;;6.48;100.00;153024.63;5051656;28;20443;-80
2021/10/14 07:42:32;;;;;;;6.83;4.77;;;;;;;6.58;100.00;153050.41;5047145;28;20493;-80
2021/10/14 07:45:08;;;;;;;5.17;4.67;;;;;;;6.66;100.00;153071.06;5071491;28;20446;-80
2021/10/14 07:47:43;;;;;;;6.67;4.97;;;;;;;6.80;100.00;153107.22;5044808;28;20917;-80
2021/10/14 07:50:20;;;;;;;8.00;4.53;;;;;;;6.81;100.00;153109.78;5065962;28;20458;-80
2021/10/14 07:52:55;;;;;;;6.80;4.67;;;;;;;6.91;99.92;153134.34;5054422;28;20495;-80
2021/10/14 07:55:31;;;;;;;5.43;4.03;;;;;;;6.94;99.64;153143.34;5047951;28;20431;-80
2021/10/14 07:58:06;;;;;;;4.33;3.63;;;;;;;7.09;100.00;153182.09;5051638;28;20473;-80
2021/10/14 08:00:42;;;;;;;5.93;4.70;;;;;;;7.25;100.00;153222.13;5052297;28;20446;-80
2021/10/14 08:03:18;;;;;;;5.23;4.67;;;;;;;7.38;100.00;153254.41;5054763;28;20449;-80
2021/10/14 08:05:55;;;;;;;5.57;4.30;;;;;;;7.64;99.44;153321.56;5053166;28;20466;-80
2021/10/14 08:08:30;;;;;;;5.23;4.73;;;;;;;7.88;97.64;153383.56;5050763;28;20474;-80
2021/10/14 08:11:06;;;;;;;5.43;4.50;;;;;;;8.04;97.02;153424.91;5054075;28;20458;-80
2021/10/14 08:13:41;;;;;;;4.93;4.20;;;;;;;8.06;94.61;153430.06;5037535;28;20460;-80
2021/10/14 08:16:17;;;;;;;5.77;4.10;;;;;;;8.22;95.52;153471.44;5072225;28;20425;-80
2021/10/14 08:18:53;;;;;;;9.03;4.40;;;;;;;8.42;95.30;153523.16;5050209;28;20503;-80
2021/10/14 08:21:30;;;;;;;8.37;4.00;;;;;;;8.43;92.58;153525.75;5050643;28;20457;-80
2021/10/14 08:24:06;;;;;;;8.37;4.67;;;;;;;8.51;93.13;153546.44;5050542;28;20814;-80
2021/10/14 08:26:41;;;;;;;4.20;3.80;;;;;;;8.55;94.22;153556.75;5066941;28;20736;-80
2021/10/14 08:29:17;;;;;;;4.40;3.63;;;;;;;8.54;92.40;153554.19;5075907;28;20438;-80
2021/10/14 08:31:52;;;;;;;5.30;4.00;;;;;;;8.65;92.38;153580.03;5062646;28;20447;-80
2021/10/14 08:34:28;;;;;;;6.27;4.20;;;;;;;8.71;90.57;153595.56;5037647;28;20428;-80
2021/10/14 08:37:05;;;;;;;4.20;3.77;;;;;;;8.73;90.56;153602.03;5037782;28;20435;-81
2021/10/14 08:39:41;;;;;;;6.47;4.40;;;;;;;8.75;91.61;153607.19;5037644;28;20442;-80
2021/10/14 08:42:17;;;;;;;4.40;3.47;;;;;;;8.79;89.95;153617.50;5075473;28;20882;-81
2021/10/14 08:44:53;;;;;;;4.40;3.73;;;;;;;8.90;89.65;153644.66;5056019;28;20983;-80
2021/10/14 08:47:28;;;;;;;4.70;3.77;;;;;;;9.00;90.33;153671.81;5053273;28;20536;-80
2021/10/14 08:50:06;;;;;;;3.60;3.27;;;;;;;9.05;89.89;153684.75;5039495;28;20531;-80
2021/10/14 08:52:43;;;;;;;8.33;4.03;;;;;;;9.09;88.81;153693.81;5050752;28;20458;-80
2021/10/14 08:55:19;;;;;;;4.23;3.60;;;;;;;9.19;88.96;153719.69;5066264;28;20552;-80
2021/10/14 08:57:54;;;;;;;3.97;2.90;;;;;;;9.25;87.86;153735.22;5057259;28;20541;-80
2021/10/14 09:00:30;;;;;;;4.73;3.67;;;;;;;9.27;87.35;153740.38;5041969;28;20457;-80
2021/10/14 09:03:24;;;;;;;4.97;3.53;;;;;;;9.26;87.78;153737.81;5055895;28;20460;-80
2021/10/14 09:06:00;;;;;;;4.10;3.13;;;;;;;9.36;87.19;153763.66;5056085;28;20462;-80
2021/10/14 09:08:39;;;;;;;4.53;3.60;;;;;;;9.42;86.33;153779.22;5073826;28;20474;-80
2021/10/14 09:11:16;;;;;;;5.77;3.33;;;;;;;9.53;85.65;153807.63;5073633;28;20414;-80
2021/10/14 09:13:53;;;;;;;5.30;3.13;;;;;;;9.61;84.49;153827.06;5037982;28;20458;-80
2021/10/14 09:16:31;;;;;;;5.20;3.33;;;;;;;9.69;84.25;153849.03;5037086;28;20814;-80
2021/10/14 09:19:14;;;;;;;4.27;3.20;;;;;;;9.87;85.17;153893.06;5056506;28;20469;-80
2021/10/14 09:21:51;;;;;;;4.80;3.33;;;;;;;10.05;84.48;153939.63;5050570;28;20442;-80
2021/10/14 09:24:31;;;;;;;5.43;3.63;;;;;;;10.18;83.38;153974.63;5048976;28;20470;-80
2021/10/14 09:27:10;;;;;;;3.40;3.10;;;;;;;10.34;82.90;154014.75;5068063;28;20449;-81
2021/10/14 09:29:45;;;;;;;5.50;3.57;;;;;;;10.39;83.60;154027.69;5057128;28;20449;-80
2021/10/14 09:32:22;;;;;;;3.63;3.10;;;;;;;10.37;83.07;154023.84;5055841;28;20948;-81
2021/10/14 09:35:01;;;;;;;5.20;4.03;;;;;;;10.48;83.25;154049.72;5072132;28;20527;-81
2021/10/14 09:37:38;;;;;;;4.30;3.13;;;;;;;10.48;84.65;154049.72;5046703;28;20454;-81
2021/10/14 09:40:15;;;;;;;3.83;3.40;;;;;;;10.55;79.79;154067.84;5047434;28;20446;-81
2021/10/14 09:42:55;;;;;;;3.93;3.20;;;;;;;10.60;80.31;154082.06;5057460;28;20450;-81
2021/10/14 09:45:32;;;;;;;4.43;3.20;;;;;;;10.90;79.98;154159.78;5074348;28;20458;-82
2021/10/14 09:48:11;;;;;;;4.40;3.00;;;;;;;10.94;79.67;154170.13;5056335;28;20779;-82
2021/10/14 09:50:48;;;;;;;3.67;3.37;;;;;;;10.86;81.81;154148.09;5056470;28;20529;-81
2021/10/14 09:53:27;;;;;;;3.40;2.80;;;;;;;10.94;79.40;154170.13;5066179;28;20452;-81
2021/10/14 09:56:04;;;;;;;4.30;3.00;;;;;;;10.96;78.47;154175.31;5035840;28;20985;-81
2021/10/14 09:58:40;;;;;;;6.73;3.23;;;;;;;10.93;78.91;154167.53;5055125;28;20474;-81
2021/10/14 10:01:15;;;;;;;4.77;3.60;;;;;;;10.94;77.45;154168.81;5038390;28;20452;-81
2021/10/14 10:03:51;;;;;;;6.50;3.90;;;;;;;11.08;78.28;154203.81;5044988;28;20463;-81
2021/10/14 10:06:28;;;;;;;3.50;3.20;;;;;;;11.10;77.92;154208.97;5036034;28;20481;-81
2021/10/14 10:09:06;;;;;;;4.20;3.00;;;;;;;11.07;78.81;154201.25;5063751;28;20441;-81
2021/10/14 10:11:45;;;;;;;4.20;3.40;;;;;;;11.17;75.93;154227.16;5044265;28;20841;-81
2021/10/14 10:14:22;;;;;;;4.73;3.50;;;;;;;11.16;75.54;154225.84;5059057;28;20440;-81
2021/10/14 10:16:58;;;;;;;4.10;3.53;;;;;;;11.13;75.43;154216.75;5035953;28;20442;-81
2021/10/14 10:19:54;;;;;;;5.63;3.70;;;;;;;11.16;75.68;154225.84;5057887;28;20851;-81
2021/10/14 10:22:50;;;;;;;4.77;3.63;;;;;;;11.06;75.92;154199.94;5067346;28;20455;-81
2021/10/14 10:25:37;;;;;;;3.97;3.20;;;;;;;11.17;75.34;154227.16;5047237;28;20559;-81
2021/10/14 10:28:37;;;;;;;3.77;2.70;;;;;;;11.16;76.46;154224.53;5055799;28;20467;-81
2021/10/14 10:31:12;;;;;;;3.80;3.10;;;;;;;11.33;74.51;154268.59;5070807;28;20452;-81
2021/10/14 10:33:50;;;;;;;3.17;2.87;;;;;;;11.44;72.85;154298.38;5045211;28;20448;-81
2021/10/14 10:36:51;;;;;;;5.03;3.33;;;;;;;11.39;73.71;154284.13;5052370;28;20502;-81
2021/10/14 10:39:43;;;;;;;4.97;3.70;;;;;;;11.31;74.87;154263.38;5036673;28;20468;-81
2021/10/14 10:42:20;;;;;;;4.63;2.90;;;;;;;11.34;75.17;154271.16;5059142;28;20459;-81
2021/10/14 10:45:07;;;;;;;4.27;3.20;;;;;;;11.24;76.24;154246.56;5035719;28;20468;-81
2021/10/14 10:47:45;;;;;;;3.67;2.57;;;;;;;11.15;75.50;154223.22;5041432;28;20456;-82
2021/10/14 10:50:23;;;;;;;3.57;2.67;;;;;;;11.22;76.35;154240.09;5073849;28;20424;-81
2021/10/14 10:53:03;;;;;;;4.93;3.33;;;;;;;11.27;76.76;154253.03;5052146;28;20530;-81
2021/10/14 10:55:44;;;;;;;3.90;3.07;;;;;;;11.34;76.13;154271.16;5053166;28;20420;-82
2021/10/14 10:58:41;;;;;;;3.60;2.73;;;;;;;11.33;74.38;154268.59;5061927;28;20481;-81
2021/10/14 11:01:19;;;;;;;3.90;2.90;;;;;;;11.45;74.07;154299.69;5055136;28;20548;-81
2021/10/14 11:03:58;;;;;;;2.80;2.53;;;;;;;11.44;75.78;154297.06;5051945;28;20447;-81
2021/10/14 11:06:35;;;;;;;7.47;2.53;;;;;;;11.34;75.34;154272.47;5041399;28;20500;-81
2021/10/14 11:09:14;;;;;;;4.60;2.80;;;;;;;11.38;75.54;154281.56;5050430;28;20524;-81
2021/10/14 11:11:49;;;;;;;4.07;2.70;;;;;;;11.18;78.54;154229.72;5033537;28;20438;-81
2021/10/14 11:14:38;;;;;;;2.90;2.27;;;;;;;11.34;75.39;154271.16;5038249;28;20793;-81
2021/10/14 11:17:15;;;;;;;5.83;2.10;;;;;;;11.49;72.05;154311.31;5046054;28;20448;-81
2021/10/14 11:20:05;;;;;;;3.27;2.63;;;;;;;11.51;72.62;154316.53;5054597;28;20441;-81
2021/10/14 11:22:48;;;;;;;2.07;1.70;;;;;;;11.68;71.49;154357.97;5048758;28;20485;-81
2021/10/14 11:25:24;;;;;;;3.20;1.90;;;;;;;11.57;74.30;154330.75;5052777;28;20454;-81
2021/10/14 11:28:04;;;;;;;2.43;1.90;;;;;;;11.59;72.23;154335.97;5051863;28;20537;-81
2021/10/14 11:30:41;;;;;;;2.90;2.17;;;;;;;11.58;73.91;154334.66;5051385;28;20443;-81
2021/10/14 11:33:30;;;;;;;5.43;2.50;;;;;;;11.52;73.91;154317.81;5052882;28;20540;-81
2021/10/14 11:36:07;;;;;;;2.50;2.23;;;;;;;11.48;74.09;154307.47;5052920;28;20457;-81
2021/10/14 11:38:43;;;;;;;2.57;2.20;;;;;;;11.59;68.70;154337.28;5072638;28;20452;-81
2021/10/14 11:41:18;;;;;;;5.53;2.20;;;;;;;11.64;69.65;154348.94;5068094;28;20482;-81
2021/10/14 11:43:58;;;;;;;2.70;2.50;;;;;;;11.82;67.08;154395.63;5054537;28;20910;-81
2021/10/14 11:46:35;;;;;;;3.97;2.10;;;;;;;11.72;68.66;154369.72;5054138;28;20563;-81
2021/10/14 11:49:12;;;;;;;3.00;2.07;;;;;;;11.70;70.21;154364.53;5072225;28;20501;-81
2021/10/14 11:51:50;;;;;;;3.70;2.53;;;;;;;11.82;72.51;154395.63;5063824;28;20442;-81
2021/10/14 11:54:25;;;;;;;2.80;2.40;;;;;;;11.93;72.47;154422.84;5046404;28;20431;-81
2021/10/14 11:57:01;;;;;;;2.87;2.30;;;;;;;12.07;76.20;154460.41;5060369;28;20971;-81
2021/10/14 11:59:38;;;;;;;3.33;2.37;;;;;;;12.13;72.19;154475.97;5070785;28;20467;-82
2021/10/14 12:02:15;;;;;;;3.53;2.13;;;;;;;12.15;72.12;154481.16;5052292;28;20486;-82
2021/10/14 12:04:54;;;;;;;5.13;2.80;;;;;;;12.28;71.87;154513.59;5058813;28;20448;-81
2021/10/14 12:07:32;;;;;;;3.40;2.90;;;;;;;12.46;72.41;154558.97;5035539;28;20442;-81
2021/10/14 12:10:08;;;;;;;5.77;4.10;;;;;;;12.61;70.60;154597.84;5053170;28;20927;-82
2021/10/14 12:12:43;;;;;;;4.53;3.40;;;;;;;12.64;72.55;154606.94;5054242;28;20445;-81